sensor_id;sensor_type;location;lat;lon;timestamp;P1;durP1;ratioP1;P2;durP2;ratioP2
80836;SDS011;70251;60.008;30.404;2023-08-30T00:00:31;8.45;;;3.72;;
80836;SDS011;70251;60.008;30.404;2023-08-30T00:02:56;7.87;;;2.67;;
80836;SDS011;70251;60.008;30.404;2023-08-30T00:05:22;8.75;;;3.15;;
80836;SDS011;70251;60.008;30.404;2023-08-30T00:07:48;10.37;;;3.50;;
80836;SDS011;70251;60.008;30.404;2023-08-30T00:10:14;8.68;;;3.40;;
80836;SDS011;70251;60.008;30.404;2023-08-30T00:12:39;9.90;;;3.37;;
80836;SDS011;70251;60.008;30.404;2023-08-30T00:15:05;9.40;;;3.83;;
80836;SDS011;70251;60.008;30.404;2023-08-30T00:17:31;10.23;;;3.70;;
80836;SDS011;70251;60.008;30.404;2023-08-30T00:19:57;9.37;;;3.53;;
80836;SDS011;70251;60.008;30.404;2023-08-30T00:22:23;7.33;;;3.20;;
80836;SDS011;70251;60.008;30.404;2023-08-30T00:24:49;10.18;;;3.40;;
80836;SDS011;70251;60.008;30.404;2023-08-30T00:27:14;10.47;;;3.33;;
80836;SDS011;70251;60.008;30.404;2023-08-30T00:29:40;9.20;;;3.35;;
80836;SDS011;70251;60.008;30.404;2023-08-30T00:32:06;8.37;;;3.07;;
80836;SDS011;70251;60.008;30.404;2023-08-30T00:34:31;7.50;;;3.30;;
80836;SDS011;70251;60.008;30.404;2023-08-30T00:36:57;8.43;;;3.47;;
80836;SDS011;70251;60.008;30.404;2023-08-30T00:39:22;8.83;;;3.10;;
80836;SDS011;70251;60.008;30.404;2023-08-30T00:41:48;7.85;;;3.67;;
80836;SDS011;70251;60.008;30.404;2023-08-30T00:44:14;6.73;;;2.80;;
80836;SDS011;70251;60.008;30.404;2023-08-30T00:46:40;11.60;;;3.78;;
80836;SDS011;70251;60.008;30.404;2023-08-30T00:49:06;9.63;;;3.38;;
80836;SDS011;70251;60.008;30.404;2023-08-30T00:51:32;8.88;;;3.75;;
80836;SDS011;70251;60.008;30.404;2023-08-30T00:53:59;7.20;;;3.58;;
80836;SDS011;70251;60.008;30.404;2023-08-30T00:56:25;8.67;;;3.63;;
80836;SDS011;70251;60.008;30.404;2023-08-30T00:58:52;9.20;;;3.42;;
80836;SDS011;70251;60.008;30.404;2023-08-30T01:01:18;11.35;;;3.60;;
80836;SDS011;70251;60.008;30.404;2023-08-30T01:03:45;8.48;;;3.45;;
80836;SDS011;70251;60.008;30.404;2023-08-30T01:06:10;8.40;;;3.73;;
80836;SDS011;70251;60.008;30.404;2023-08-30T01:08:37;7.53;;;3.60;;
80836;SDS011;70251;60.008;30.404;2023-08-30T01:11:18;8.07;;;3.75;;
80836;SDS011;70251;60.008;30.404;2023-08-30T01:14:04;8.50;;;3.37;;
80836;SDS011;70251;60.008;30.404;2023-08-30T01:16:36;7.72;;;3.40;;
80836;SDS011;70251;60.008;30.404;2023-08-30T01:22:29;8.07;;;4.20;;
80836;SDS011;70251;60.008;30.404;2023-08-30T01:24:44;10.55;;;4.32;;
80836;SDS011;70251;60.008;30.404;2023-08-30T01:27:16;8.73;;;3.60;;
80836;SDS011;70251;60.008;30.404;2023-08-30T01:29:44;9.93;;;4.32;;
80836;SDS011;70251;60.008;30.404;2023-08-30T01:32:11;10.02;;;3.90;;
80836;SDS011;70251;60.008;30.404;2023-08-30T01:34:38;9.88;;;3.80;;
80836;SDS011;70251;60.008;30.404;2023-08-30T01:37:06;7.22;;;3.72;;
80836;SDS011;70251;60.008;30.404;2023-08-30T01:39:38;8.87;;;4.57;;
80836;SDS011;70251;60.008;30.404;2023-08-30T01:42:06;9.57;;;4.47;;
80836;SDS011;70251;60.008;30.404;2023-08-30T01:44:33;10.10;;;3.90;;
80836;SDS011;70251;60.008;30.404;2023-08-30T01:46:59;10.82;;;4.13;;
80836;SDS011;70251;60.008;30.404;2023-08-30T01:49:28;9.48;;;3.53;;
80836;SDS011;70251;60.008;30.404;2023-08-30T01:51:57;10.53;;;3.80;;
80836;SDS011;70251;60.008;30.404;2023-08-30T01:54:23;9.60;;;4.00;;
80836;SDS011;70251;60.008;30.404;2023-08-30T01:56:50;8.05;;;3.45;;
80836;SDS011;70251;60.008;30.404;2023-08-30T01:59:16;8.20;;;3.30;;
80836;SDS011;70251;60.008;30.404;2023-08-30T02:01:41;8.38;;;3.40;;
80836;SDS011;70251;60.008;30.404;2023-08-30T02:04:07;9.87;;;3.67;;
80836;SDS011;70251;60.008;30.404;2023-08-30T02:09:09;12.10;;;3.63;;
80836;SDS011;70251;60.008;30.404;2023-08-30T02:12:06;8.68;;;3.47;;
80836;SDS011;70251;60.008;30.404;2023-08-30T02:14:35;7.90;;;3.87;;
80836;SDS011;70251;60.008;30.404;2023-08-30T02:17:03;10.88;;;3.90;;
80836;SDS011;70251;60.008;30.404;2023-08-30T02:19:31;10.23;;;4.20;;
80836;SDS011;70251;60.008;30.404;2023-08-30T02:21:57;9.90;;;3.28;;
80836;SDS011;70251;60.008;30.404;2023-08-30T02:24:24;9.70;;;3.60;;
80836;SDS011;70251;60.008;30.404;2023-08-30T02:26:49;8.00;;;3.93;;
80836;SDS011;70251;60.008;30.404;2023-08-30T02:29:15;7.43;;;3.27;;
80836;SDS011;70251;60.008;30.404;2023-08-30T02:31:41;8.02;;;3.28;;
80836;SDS011;70251;60.008;30.404;2023-08-30T02:34:06;10.45;;;3.90;;
80836;SDS011;70251;60.008;30.404;2023-08-30T02:36:32;9.50;;;3.77;;
80836;SDS011;70251;60.008;30.404;2023-08-30T02:38:58;9.95;;;3.50;;
80836;SDS011;70251;60.008;30.404;2023-08-30T02:41:24;8.43;;;3.50;;
80836;SDS011;70251;60.008;30.404;2023-08-30T02:43:49;8.30;;;3.50;;
80836;SDS011;70251;60.008;30.404;2023-08-30T02:46:15;9.30;;;3.67;;
80836;SDS011;70251;60.008;30.404;2023-08-30T02:48:41;8.73;;;3.70;;
80836;SDS011;70251;60.008;30.404;2023-08-30T02:51:06;10.03;;;3.80;;
80836;SDS011;70251;60.008;30.404;2023-08-30T02:53:32;9.63;;;3.57;;
80836;SDS011;70251;60.008;30.404;2023-08-30T02:55:57;9.45;;;4.03;;
80836;SDS011;70251;60.008;30.404;2023-08-30T02:58:23;9.63;;;4.07;;
80836;SDS011;70251;60.008;30.404;2023-08-30T03:00:48;8.35;;;3.63;;
80836;SDS011;70251;60.008;30.404;2023-08-30T03:03:14;12.83;;;4.40;;
80836;SDS011;70251;60.008;30.404;2023-08-30T03:05:40;8.10;;;3.43;;
80836;SDS011;70251;60.008;30.404;2023-08-30T03:08:05;7.63;;;3.25;;
80836;SDS011;70251;60.008;30.404;2023-08-30T03:10:31;7.97;;;3.70;;
80836;SDS011;70251;60.008;30.404;2023-08-30T03:12:57;9.25;;;4.00;;
80836;SDS011;70251;60.008;30.404;2023-08-30T03:15:23;10.23;;;3.85;;
80836;SDS011;70251;60.008;30.404;2023-08-30T03:17:48;8.40;;;3.47;;
80836;SDS011;70251;60.008;30.404;2023-08-30T03:20:14;8.63;;;3.70;;
80836;SDS011;70251;60.008;30.404;2023-08-30T03:22:40;7.70;;;3.40;;
80836;SDS011;70251;60.008;30.404;2023-08-30T03:25:06;9.95;;;3.83;;
80836;SDS011;70251;60.008;30.404;2023-08-30T03:27:34;8.27;;;3.80;;
80836;SDS011;70251;60.008;30.404;2023-08-30T03:30:00;11.15;;;3.90;;
80836;SDS011;70251;60.008;30.404;2023-08-30T03:32:30;9.27;;;3.20;;
80836;SDS011;70251;60.008;30.404;2023-08-30T03:34:57;11.23;;;3.83;;
80836;SDS011;70251;60.008;30.404;2023-08-30T03:37:23;8.88;;;3.97;;
80836;SDS011;70251;60.008;30.404;2023-08-30T03:39:49;8.70;;;3.30;;
80836;SDS011;70251;60.008;30.404;2023-08-30T03:42:14;9.25;;;3.50;;
80836;SDS011;70251;60.008;30.404;2023-08-30T03:44:40;8.03;;;3.40;;
80836;SDS011;70251;60.008;30.404;2023-08-30T03:47:05;8.00;;;3.80;;
80836;SDS011;70251;60.008;30.404;2023-08-30T03:49:31;7.88;;;3.50;;
80836;SDS011;70251;60.008;30.404;2023-08-30T03:51:56;6.57;;;3.33;;
80836;SDS011;70251;60.008;30.404;2023-08-30T03:54:22;9.35;;;3.30;;
80836;SDS011;70251;60.008;30.404;2023-08-30T03:56:48;9.07;;;3.27;;
80836;SDS011;70251;60.008;30.404;2023-08-30T03:59:13;10.07;;;3.78;;
80836;SDS011;70251;60.008;30.404;2023-08-30T04:01:39;7.13;;;3.30;;
80836;SDS011;70251;60.008;30.404;2023-08-30T04:04:04;7.80;;;3.00;;
80836;SDS011;70251;60.008;30.404;2023-08-30T04:06:30;6.50;;;2.75;;
80836;SDS011;70251;60.008;30.404;2023-08-30T04:08:56;8.03;;;3.10;;
80836;SDS011;70251;60.008;30.404;2023-08-30T04:11:22;9.27;;;3.25;;
80836;SDS011;70251;60.008;30.404;2023-08-30T04:13:47;7.90;;;2.60;;
80836;SDS011;70251;60.008;30.404;2023-08-30T04:16:13;6.80;;;2.65;;
80836;SDS011;70251;60.008;30.404;2023-08-30T04:18:38;6.93;;;2.50;;
80836;SDS011;70251;60.008;30.404;2023-08-30T04:21:04;6.73;;;2.80;;
80836;SDS011;70251;60.008;30.404;2023-08-30T04:23:31;8.88;;;3.08;;
80836;SDS011;70251;60.008;30.404;2023-08-30T04:25:56;9.45;;;2.72;;
80836;SDS011;70251;60.008;30.404;2023-08-30T04:28:22;6.67;;;2.40;;
80836;SDS011;70251;60.008;30.404;2023-08-30T04:30:48;9.07;;;2.40;;
80836;SDS011;70251;60.008;30.404;2023-08-30T04:33:13;6.17;;;2.80;;
80836;SDS011;70251;60.008;30.404;2023-08-30T04:35:39;6.47;;;2.77;;
80836;SDS011;70251;60.008;30.404;2023-08-30T04:38:05;9.27;;;2.97;;
80836;SDS011;70251;60.008;30.404;2023-08-30T04:40:31;8.10;;;2.67;;
80836;SDS011;70251;60.008;30.404;2023-08-30T04:42:58;9.90;;;2.63;;
80836;SDS011;70251;60.008;30.404;2023-08-30T04:45:23;7.95;;;2.70;;
80836;SDS011;70251;60.008;30.404;2023-08-30T04:47:49;7.18;;;2.80;;
80836;SDS011;70251;60.008;30.404;2023-08-30T04:50:15;7.87;;;2.97;;
80836;SDS011;70251;60.008;30.404;2023-08-30T04:52:42;7.38;;;2.65;;
80836;SDS011;70251;60.008;30.404;2023-08-30T04:55:08;8.65;;;3.10;;
80836;SDS011;70251;60.008;30.404;2023-08-30T04:57:34;6.82;;;2.85;;
80836;SDS011;70251;60.008;30.404;2023-08-30T04:59:59;7.23;;;3.10;;
80836;SDS011;70251;60.008;30.404;2023-08-30T05:02:31;8.75;;;2.75;;
80836;SDS011;70251;60.008;30.404;2023-08-30T05:04:58;8.80;;;2.67;;
80836;SDS011;70251;60.008;30.404;2023-08-30T05:07:24;8.63;;;2.80;;
80836;SDS011;70251;60.008;30.404;2023-08-30T05:09:50;8.63;;;2.63;;
80836;SDS011;70251;60.008;30.404;2023-08-30T05:12:15;9.87;;;2.43;;
80836;SDS011;70251;60.008;30.404;2023-08-30T05:14:41;7.68;;;2.70;;
80836;SDS011;70251;60.008;30.404;2023-08-30T05:17:07;9.03;;;3.20;;
80836;SDS011;70251;60.008;30.404;2023-08-30T05:19:32;8.80;;;2.97;;
80836;SDS011;70251;60.008;30.404;2023-08-30T05:21:58;9.25;;;3.15;;
80836;SDS011;70251;60.008;30.404;2023-08-30T05:24:23;11.47;;;3.60;;
80836;SDS011;70251;60.008;30.404;2023-08-30T05:26:49;11.77;;;3.08;;
80836;SDS011;70251;60.008;30.404;2023-08-30T05:29:15;7.53;;;2.80;;
80836;SDS011;70251;60.008;30.404;2023-08-30T05:31:41;8.80;;;2.63;;
80836;SDS011;70251;60.008;30.404;2023-08-30T05:34:07;7.15;;;2.97;;
80836;SDS011;70251;60.008;30.404;2023-08-30T05:36:32;7.10;;;2.50;;
80836;SDS011;70251;60.008;30.404;2023-08-30T05:38:58;8.52;;;3.03;;
80836;SDS011;70251;60.008;30.404;2023-08-30T05:41:23;7.03;;;2.60;;
80836;SDS011;70251;60.008;30.404;2023-08-30T05:43:51;7.50;;;2.67;;
80836;SDS011;70251;60.008;30.404;2023-08-30T05:46:16;8.77;;;2.75;;
80836;SDS011;70251;60.008;30.404;2023-08-30T05:48:42;6.57;;;2.80;;
80836;SDS011;70251;60.008;30.404;2023-08-30T05:51:08;9.07;;;2.92;;
80836;SDS011;70251;60.008;30.404;2023-08-30T05:53:34;13.97;;;2.80;;
80836;SDS011;70251;60.008;30.404;2023-08-30T05:55:59;7.05;;;3.40;;
80836;SDS011;70251;60.008;30.404;2023-08-30T05:58:25;8.80;;;3.43;;
80836;SDS011;70251;60.008;30.404;2023-08-30T06:00:51;7.80;;;2.67;;
80836;SDS011;70251;60.008;30.404;2023-08-30T06:03:17;8.23;;;2.97;;
80836;SDS011;70251;60.008;30.404;2023-08-30T06:05:42;6.57;;;2.30;;
80836;SDS011;70251;60.008;30.404;2023-08-30T06:08:08;7.40;;;2.40;;
80836;SDS011;70251;60.008;30.404;2023-08-30T06:10:35;9.10;;;2.40;;
80836;SDS011;70251;60.008;30.404;2023-08-30T06:13:01;7.72;;;2.58;;
80836;SDS011;70251;60.008;30.404;2023-08-30T06:15:28;7.90;;;2.58;;
80836;SDS011;70251;60.008;30.404;2023-08-30T06:17:53;6.77;;;2.00;;
80836;SDS011;70251;60.008;30.404;2023-08-30T06:20:19;6.70;;;2.03;;
80836;SDS011;70251;60.008;30.404;2023-08-30T06:22:44;4.63;;;1.50;;
80836;SDS011;70251;60.008;30.404;2023-08-30T06:25:10;5.90;;;1.48;;
80836;SDS011;70251;60.008;30.404;2023-08-30T06:27:54;4.87;;;1.60;;
80836;SDS011;70251;60.008;30.404;2023-08-30T06:30:25;4.10;;;0.80;;
80836;SDS011;70251;60.008;30.404;2023-08-30T06:32:52;4.88;;;1.90;;
80836;SDS011;70251;60.008;30.404;2023-08-30T06:35:18;7.17;;;1.60;;
80836;SDS011;70251;60.008;30.404;2023-08-30T06:37:43;8.63;;;1.57;;
80836;SDS011;70251;60.008;30.404;2023-08-30T06:40:09;4.25;;;1.33;;
80836;SDS011;70251;60.008;30.404;2023-08-30T06:42:35;7.45;;;2.00;;
80836;SDS011;70251;60.008;30.404;2023-08-30T06:45:01;5.93;;;2.00;;
80836;SDS011;70251;60.008;30.404;2023-08-30T06:47:32;5.35;;;2.33;;
80836;SDS011;70251;60.008;30.404;2023-08-30T06:49:58;7.68;;;2.50;;
80836;SDS011;70251;60.008;30.404;2023-08-30T06:52:25;5.83;;;2.30;;
80836;SDS011;70251;60.008;30.404;2023-08-30T06:54:51;6.38;;;2.30;;
80836;SDS011;70251;60.008;30.404;2023-08-30T06:57:16;6.47;;;2.07;;
80836;SDS011;70251;60.008;30.404;2023-08-30T06:59:42;8.02;;;2.40;;
80836;SDS011;70251;60.008;30.404;2023-08-30T07:02:08;4.83;;;2.00;;
80836;SDS011;70251;60.008;30.404;2023-08-30T07:04:33;6.13;;;1.75;;
80836;SDS011;70251;60.008;30.404;2023-08-30T07:06:59;8.07;;;2.00;;
80836;SDS011;70251;60.008;30.404;2023-08-30T07:09:24;6.00;;;2.23;;
80836;SDS011;70251;60.008;30.404;2023-08-30T07:11:57;6.03;;;1.70;;
80836;SDS011;70251;60.008;30.404;2023-08-30T07:14:23;4.68;;;1.35;;
80836;SDS011;70251;60.008;30.404;2023-08-30T07:16:49;5.13;;;1.30;;
80836;SDS011;70251;60.008;30.404;2023-08-30T07:19:18;4.63;;;1.20;;
80836;SDS011;70251;60.008;30.404;2023-08-30T07:21:43;4.97;;;1.30;;
80836;SDS011;70251;60.008;30.404;2023-08-30T07:24:09;4.38;;;0.95;;
80836;SDS011;70251;60.008;30.404;2023-08-30T07:26:35;4.83;;;1.13;;
80836;SDS011;70251;60.008;30.404;2023-08-30T07:29:01;4.28;;;1.05;;
80836;SDS011;70251;60.008;30.404;2023-08-30T07:31:27;4.93;;;1.25;;
80836;SDS011;70251;60.008;30.404;2023-08-30T07:33:53;4.03;;;1.23;;
80836;SDS011;70251;60.008;30.404;2023-08-30T07:36:18;4.53;;;1.20;;
80836;SDS011;70251;60.008;30.404;2023-08-30T07:38:44;3.83;;;1.00;;
80836;SDS011;70251;60.008;30.404;2023-08-30T07:41:09;5.00;;;1.13;;
80836;SDS011;70251;60.008;30.404;2023-08-30T07:43:35;4.00;;;1.20;;
80836;SDS011;70251;60.008;30.404;2023-08-30T07:46:00;5.15;;;1.40;;
80836;SDS011;70251;60.008;30.404;2023-08-30T07:48:26;10.17;;;1.30;;
80836;SDS011;70251;60.008;30.404;2023-08-30T07:50:52;5.15;;;1.15;;
80836;SDS011;70251;60.008;30.404;2023-08-30T07:53:18;5.33;;;1.57;;
80836;SDS011;70251;60.008;30.404;2023-08-30T07:55:50;4.55;;;1.23;;
80836;SDS011;70251;60.008;30.404;2023-08-30T07:58:16;3.75;;;1.20;;
80836;SDS011;70251;60.008;30.404;2023-08-30T08:00:43;5.70;;;1.15;;
80836;SDS011;70251;60.008;30.404;2023-08-30T08:03:09;4.50;;;1.10;;
80836;SDS011;70251;60.008;30.404;2023-08-30T08:05:37;6.07;;;1.35;;
80836;SDS011;70251;60.008;30.404;2023-08-30T08:08:03;5.13;;;1.15;;
80836;SDS011;70251;60.008;30.404;2023-08-30T08:10:34;6.37;;;1.57;;
80836;SDS011;70251;60.008;30.404;2023-08-30T08:13:00;4.30;;;0.90;;
80836;SDS011;70251;60.008;30.404;2023-08-30T08:15:26;4.50;;;1.23;;
80836;SDS011;70251;60.008;30.404;2023-08-30T08:17:54;5.10;;;0.90;;
80836;SDS011;70251;60.008;30.404;2023-08-30T08:20:21;4.53;;;1.23;;
80836;SDS011;70251;60.008;30.404;2023-08-30T08:22:47;4.85;;;1.15;;
80836;SDS011;70251;60.008;30.404;2023-08-30T08:25:13;3.77;;;1.10;;
80836;SDS011;70251;60.008;30.404;2023-08-30T08:27:39;5.75;;;1.10;;
80836;SDS011;70251;60.008;30.404;2023-08-30T08:30:04;4.67;;;0.83;;
80836;SDS011;70251;60.008;30.404;2023-08-30T08:32:31;4.20;;;0.95;;
80836;SDS011;70251;60.008;30.404;2023-08-30T08:34:57;4.90;;;1.00;;
80836;SDS011;70251;60.008;30.404;2023-08-30T08:37:23;5.20;;;1.00;;
80836;SDS011;70251;60.008;30.404;2023-08-30T08:39:49;3.83;;;0.90;;
80836;SDS011;70251;60.008;30.404;2023-08-30T08:42:17;5.03;;;1.00;;
80836;SDS011;70251;60.008;30.404;2023-08-30T08:44:46;3.60;;;0.90;;
80836;SDS011;70251;60.008;30.404;2023-08-30T08:47:14;7.30;;;1.20;;
80836;SDS011;70251;60.008;30.404;2023-08-30T08:49:42;5.28;;;1.08;;
80836;SDS011;70251;60.008;30.404;2023-08-30T08:52:07;4.10;;;1.17;;
80836;SDS011;70251;60.008;30.404;2023-08-30T08:54:33;3.33;;;0.90;;
80836;SDS011;70251;60.008;30.404;2023-08-30T08:56:59;6.07;;;1.10;;
80836;SDS011;70251;60.008;30.404;2023-08-30T08:59:25;3.92;;;1.15;;
80836;SDS011;70251;60.008;30.404;2023-08-30T09:01:51;6.50;;;1.60;;
80836;SDS011;70251;60.008;30.404;2023-08-30T09:04:17;4.77;;;1.40;;
80836;SDS011;70251;60.008;30.404;2023-08-30T09:06:44;4.15;;;1.30;;
80836;SDS011;70251;60.008;30.404;2023-08-30T09:09:10;4.35;;;1.20;;
80836;SDS011;70251;60.008;30.404;2023-08-30T09:11:35;4.75;;;1.23;;
80836;SDS011;70251;60.008;30.404;2023-08-30T09:14:01;4.83;;;1.13;;
80836;SDS011;70251;60.008;30.404;2023-08-30T09:16:27;9.38;;;1.52;;
80836;SDS011;70251;60.008;30.404;2023-08-30T09:18:59;5.00;;;1.30;;
80836;SDS011;70251;60.008;30.404;2023-08-30T09:21:26;5.88;;;1.70;;
80836;SDS011;70251;60.008;30.404;2023-08-30T09:24:05;4.30;;;1.10;;
80836;SDS011;70251;60.008;30.404;2023-08-30T09:26:32;5.63;;;1.40;;
80836;SDS011;70251;60.008;30.404;2023-08-30T09:29:04;4.50;;;1.30;;
80836;SDS011;70251;60.008;30.404;2023-08-30T09:31:36;6.60;;;1.50;;
80836;SDS011;70251;60.008;30.404;2023-08-30T09:34:03;6.03;;;1.30;;
80836;SDS011;70251;60.008;30.404;2023-08-30T09:36:36;5.40;;;1.58;;
80836;SDS011;70251;60.008;30.404;2023-08-30T09:39:07;9.27;;;1.40;;
80836;SDS011;70251;60.008;30.404;2023-08-30T09:41:40;4.78;;;1.38;;
80836;SDS011;70251;60.008;30.404;2023-08-30T09:44:10;4.47;;;1.20;;
80836;SDS011;70251;60.008;30.404;2023-08-30T09:46:42;5.90;;;1.30;;
80836;SDS011;70251;60.008;30.404;2023-08-30T09:49:09;5.78;;;1.25;;
80836;SDS011;70251;60.008;30.404;2023-08-30T09:51:37;5.23;;;1.40;;
80836;SDS011;70251;60.008;30.404;2023-08-30T09:54:06;7.55;;;1.40;;
80836;SDS011;70251;60.008;30.404;2023-08-30T09:56:40;4.35;;;1.10;;
80836;SDS011;70251;60.008;30.404;2023-08-30T09:59:06;5.38;;;1.15;;
80836;SDS011;70251;60.008;30.404;2023-08-30T10:01:32;4.47;;;1.10;;
80836;SDS011;70251;60.008;30.404;2023-08-30T10:03:58;4.40;;;1.17;;
80836;SDS011;70251;60.008;30.404;2023-08-30T10:06:26;5.57;;;1.20;;
80836;SDS011;70251;60.008;30.404;2023-08-30T10:14:11;5.60;;;1.30;;
80836;SDS011;70251;60.008;30.404;2023-08-30T10:17:20;3.63;;;1.00;;
80836;SDS011;70251;60.008;30.404;2023-08-30T10:23:35;4.00;;;1.10;;
80836;SDS011;70251;60.008;30.404;2023-08-30T10:26:38;4.15;;;0.88;;
80836;SDS011;70251;60.008;30.404;2023-08-30T10:29:25;4.40;;;1.10;;
80836;SDS011;70251;60.008;30.404;2023-08-30T10:32:01;4.00;;;1.30;;
80836;SDS011;70251;60.008;30.404;2023-08-30T10:46:04;3.55;;;1.10;;
80836;SDS011;70251;60.008;30.404;2023-08-30T10:48:41;4.20;;;1.10;;
80836;SDS011;70251;60.008;30.404;2023-08-30T10:52:37;5.35;;;1.17;;
80836;SDS011;70251;60.008;30.404;2023-08-30T10:57:41;4.97;;;1.10;;
80836;SDS011;70251;60.008;30.404;2023-08-30T11:00:09;6.55;;;1.35;;
80836;SDS011;70251;60.008;30.404;2023-08-30T11:02:43;6.37;;;1.47;;
80836;SDS011;70251;60.008;30.404;2023-08-30T11:05:14;4.47;;;1.33;;
80836;SDS011;70251;60.008;30.404;2023-08-30T11:07:42;5.47;;;1.48;;
80836;SDS011;70251;60.008;30.404;2023-08-30T11:10:08;4.95;;;1.52;;
80836;SDS011;70251;60.008;30.404;2023-08-30T11:12:35;4.90;;;1.50;;
80836;SDS011;70251;60.008;30.404;2023-08-30T11:15:01;4.23;;;1.40;;
80836;SDS011;70251;60.008;30.404;2023-08-30T11:17:30;4.50;;;1.38;;
80836;SDS011;70251;60.008;30.404;2023-08-30T11:20:08;4.20;;;1.30;;
80836;SDS011;70251;60.008;30.404;2023-08-30T11:22:45;4.20;;;1.30;;
80836;SDS011;70251;60.008;30.404;2023-08-30T11:25:13;5.70;;;1.30;;
80836;SDS011;70251;60.008;30.404;2023-08-30T11:27:40;4.75;;;1.40;;
80836;SDS011;70251;60.008;30.404;2023-08-30T11:30:06;9.13;;;1.60;;
80836;SDS011;70251;60.008;30.404;2023-08-30T11:32:35;6.13;;;1.40;;
80836;SDS011;70251;60.008;30.404;2023-08-30T11:35:02;4.55;;;1.10;;
80836;SDS011;70251;60.008;30.404;2023-08-30T11:37:33;4.87;;;1.40;;
80836;SDS011;70251;60.008;30.404;2023-08-30T11:39:59;5.22;;;1.15;;
80836;SDS011;70251;60.008;30.404;2023-08-30T11:42:30;4.57;;;1.08;;
80836;SDS011;70251;60.008;30.404;2023-08-30T11:44:57;4.65;;;1.25;;
80836;SDS011;70251;60.008;30.404;2023-08-30T11:47:24;4.65;;;0.93;;
80836;SDS011;70251;60.008;30.404;2023-08-30T11:49:52;5.87;;;1.30;;
80836;SDS011;70251;60.008;30.404;2023-08-30T11:52:19;4.55;;;1.20;;
80836;SDS011;70251;60.008;30.404;2023-08-30T11:54:47;4.18;;;1.02;;
80836;SDS011;70251;60.008;30.404;2023-08-30T11:57:13;4.70;;;1.15;;
80836;SDS011;70251;60.008;30.404;2023-08-30T11:59:39;5.97;;;1.33;;
80836;SDS011;70251;60.008;30.404;2023-08-30T12:02:05;4.53;;;1.05;;
80836;SDS011;70251;60.008;30.404;2023-08-30T12:04:41;4.82;;;1.40;;
80836;SDS011;70251;60.008;30.404;2023-08-30T12:07:07;4.90;;;1.10;;
80836;SDS011;70251;60.008;30.404;2023-08-30T12:09:33;5.80;;;1.13;;
80836;SDS011;70251;60.008;30.404;2023-08-30T12:12:08;4.85;;;1.17;;
80836;SDS011;70251;60.008;30.404;2023-08-30T12:14:35;3.30;;;1.08;;
80836;SDS011;70251;60.008;30.404;2023-08-30T12:17:02;4.88;;;1.10;;
80836;SDS011;70251;60.008;30.404;2023-08-30T12:19:29;3.10;;;0.90;;
80836;SDS011;70251;60.008;30.404;2023-08-30T12:22:02;4.68;;;1.00;;
80836;SDS011;70251;60.008;30.404;2023-08-30T12:24:46;4.07;;;0.80;;
80836;SDS011;70251;60.008;30.404;2023-08-30T12:27:12;2.17;;;0.60;;
80836;SDS011;70251;60.008;30.404;2023-08-30T12:29:39;5.47;;;0.90;;
80836;SDS011;70251;60.008;30.404;2023-08-30T12:32:05;8.17;;;1.13;;
80836;SDS011;70251;60.008;30.404;2023-08-30T12:34:32;4.45;;;1.20;;
80836;SDS011;70251;60.008;30.404;2023-08-30T12:36:57;4.65;;;1.00;;
80836;SDS011;70251;60.008;30.404;2023-08-30T12:39:23;5.03;;;1.20;;
80836;SDS011;70251;60.008;30.404;2023-08-30T12:41:49;4.18;;;0.98;;
80836;SDS011;70251;60.008;30.404;2023-08-30T12:44:15;5.00;;;0.60;;
80836;SDS011;70251;60.008;30.404;2023-08-30T12:46:40;4.73;;;0.73;;
80836;SDS011;70251;60.008;30.404;2023-08-30T12:49:06;2.60;;;0.70;;
80836;SDS011;70251;60.008;30.404;2023-08-30T12:51:32;3.03;;;0.60;;
80836;SDS011;70251;60.008;30.404;2023-08-30T12:53:57;5.13;;;0.80;;
80836;SDS011;70251;60.008;30.404;2023-08-30T12:56:23;2.83;;;0.60;;
80836;SDS011;70251;60.008;30.404;2023-08-30T12:58:48;4.10;;;0.70;;
80836;SDS011;70251;60.008;30.404;2023-08-30T13:01:14;2.77;;;0.63;;
80836;SDS011;70251;60.008;30.404;2023-08-30T13:03:39;4.17;;;0.83;;
80836;SDS011;70251;60.008;30.404;2023-08-30T13:06:05;3.78;;;0.90;;
80836;SDS011;70251;60.008;30.404;2023-08-30T13:08:31;3.42;;;0.60;;
80836;SDS011;70251;60.008;30.404;2023-08-30T13:10:59;3.17;;;0.60;;
80836;SDS011;70251;60.008;30.404;2023-08-30T13:13:24;2.75;;;0.65;;
80836;SDS011;70251;60.008;30.404;2023-08-30T13:15:50;4.00;;;0.60;;
80836;SDS011;70251;60.008;30.404;2023-08-30T13:18:16;3.55;;;0.50;;
80836;SDS011;70251;60.008;30.404;2023-08-30T13:20:43;2.83;;;0.60;;
80836;SDS011;70251;60.008;30.404;2023-08-30T13:23:08;3.08;;;0.60;;
80836;SDS011;70251;60.008;30.404;2023-08-30T13:25:38;4.70;;;0.60;;
80836;SDS011;70251;60.008;30.404;2023-08-30T13:28:05;5.43;;;0.80;;
80836;SDS011;70251;60.008;30.404;2023-08-30T13:30:30;2.83;;;0.60;;
80836;SDS011;70251;60.008;30.404;2023-08-30T13:32:56;2.93;;;0.67;;
80836;SDS011;70251;60.008;30.404;2023-08-30T13:35:21;5.50;;;0.70;;
80836;SDS011;70251;60.008;30.404;2023-08-30T13:37:47;3.73;;;0.80;;
80836;SDS011;70251;60.008;30.404;2023-08-30T13:40:13;1.60;;;0.40;;
80836;SDS011;70251;60.008;30.404;2023-08-30T13:42:38;2.60;;;0.93;;
80836;SDS011;70251;60.008;30.404;2023-08-30T13:45:04;5.63;;;1.20;;
80836;SDS011;70251;60.008;30.404;2023-08-30T13:47:31;5.85;;;0.82;;
80836;SDS011;70251;60.008;30.404;2023-08-30T13:49:57;3.87;;;0.70;;
80836;SDS011;70251;60.008;30.404;2023-08-30T13:52:24;4.37;;;0.77;;
80836;SDS011;70251;60.008;30.404;2023-08-30T13:54:51;2.25;;;0.52;;
80836;SDS011;70251;60.008;30.404;2023-08-30T13:57:17;6.63;;;0.93;;
80836;SDS011;70251;60.008;30.404;2023-08-30T13:59:42;5.70;;;0.90;;
80836;SDS011;70251;60.008;30.404;2023-08-30T14:02:08;5.77;;;0.90;;
80836;SDS011;70251;60.008;30.404;2023-08-30T14:04:34;6.67;;;1.20;;
80836;SDS011;70251;60.008;30.404;2023-08-30T14:07:02;2.60;;;0.70;;
80836;SDS011;70251;60.008;30.404;2023-08-30T14:09:29;2.65;;;0.75;;
80836;SDS011;70251;60.008;30.404;2023-08-30T14:11:54;4.70;;;0.80;;
80836;SDS011;70251;60.008;30.404;2023-08-30T14:14:20;2.93;;;0.70;;
80836;SDS011;70251;60.008;30.404;2023-08-30T14:16:46;4.25;;;0.77;;
80836;SDS011;70251;60.008;30.404;2023-08-30T14:19:12;5.28;;;0.95;;
80836;SDS011;70251;60.008;30.404;2023-08-30T14:21:41;5.13;;;0.83;;
80836;SDS011;70251;60.008;30.404;2023-08-30T14:24:06;3.00;;;0.70;;
80836;SDS011;70251;60.008;30.404;2023-08-30T14:26:32;4.60;;;1.07;;
80836;SDS011;70251;60.008;30.404;2023-08-30T14:28:58;4.90;;;1.00;;
80836;SDS011;70251;60.008;30.404;2023-08-30T14:31:23;4.47;;;1.10;;
80836;SDS011;70251;60.008;30.404;2023-08-30T14:33:53;4.60;;;0.98;;
80836;SDS011;70251;60.008;30.404;2023-08-30T14:36:21;5.63;;;1.38;;
80836;SDS011;70251;60.008;30.404;2023-08-30T14:38:46;6.30;;;1.57;;
80836;SDS011;70251;60.008;30.404;2023-08-30T14:41:12;4.57;;;1.23;;
80836;SDS011;70251;60.008;30.404;2023-08-30T14:43:38;4.78;;;1.33;;
80836;SDS011;70251;60.008;30.404;2023-08-30T14:46:05;5.97;;;1.30;;
80836;SDS011;70251;60.008;30.404;2023-08-30T14:48:31;7.47;;;1.50;;
80836;SDS011;70251;60.008;30.404;2023-08-30T14:50:58;5.68;;;1.27;;
80836;SDS011;70251;60.008;30.404;2023-08-30T14:53:24;4.63;;;1.55;;
80836;SDS011;70251;60.008;30.404;2023-08-30T14:55:50;5.85;;;1.50;;
80836;SDS011;70251;60.008;30.404;2023-08-30T14:58:15;6.03;;;1.70;;
80836;SDS011;70251;60.008;30.404;2023-08-30T15:00:41;7.45;;;1.65;;
80836;SDS011;70251;60.008;30.404;2023-08-30T15:03:06;4.40;;;1.17;;